Pine Ridge, Idaho
Current Conditions -  °F | °C
As of 4:51 PM on Friday 24 Oct 2014 (Local Time) from KMYL Reporting Station
Overcast Overcast  
Wind Chill: 49°   Ceiling: 10000
Heat Index: 49°   Visibility: 10mi
Dew Point: 44°   Wind: 3mph
Humidity: 83%   Direction: NA
Pressure: 30.06"   Gusts: NA
Location:  44.9328°N, 116.572°W
Report Text: KMYL 242251Z AUTO VRB03KT 10SM OVC100 09/07 A3006 RMK AO2 SLP173 T00940067
Loading
Personal Weather Stations






























Interactive Weather Map
Tropical Storm Tracking
New forecast layout! Learn more

10-Day Weather Forecast

Advertisements
Track Severe Weather on mobile